Time;durP1;ratioP1;P1;durP2;ratioP2;P2;SDS_P1;SDS_P2;PMS_P1;PMS_P2;Temp;Humidity;BMP_temperature;BMP_pressure;BME280_temperature;BME280_humidity;BME280_pressure;Samples;Min_cycle;Max_cycle;Signal;HPM_P1;HPM_P2
2021/12/10 00:00:23;;;;;;;25.13;16.15;;;9.60;99.90;;;;;;5052830;28;20045;-64
2021/12/10 00:02:49;;;;;;;26.60;16.23;;;;;;;;;;5052531;28;20052;-64
2021/12/10 00:05:17;;;;;;;23.33;15.45;;;9.40;99.90;;;;;;5053278;28;20083;-59
2021/12/10 00:07:43;;;;;;;27.33;16.15;;;9.40;99.90;;;;;;5052207;28;20106;-58
2021/12/10 00:10:14;;;;;;;26.33;15.27;;;9.20;99.90;;;;;;5053005;28;20095;-58
2021/12/10 00:12:49;;;;;;;27.35;15.13;;;9.40;99.90;;;;;;5052987;28;20051;-58
2021/12/10 00:15:15;;;;;;;27.80;15.02;;;9.40;99.90;;;;;;5052347;28;20041;-58
2021/12/10 00:17:41;;;;;;;23.27;14.95;;;9.40;99.90;;;;;;5053100;28;20044;-58
2021/12/10 00:20:08;;;;;;;25.20;15.55;;;9.40;99.90;;;;;;5052906;28;20047;-58
2021/12/10 00:22:40;;;;;;;22.30;13.93;;;9.50;99.90;;;;;;5052467;28;20052;-59
2021/12/10 00:25:08;;;;;;;23.13;14.90;;;9.50;99.90;;;;;;5051387;28;20128;-58
2021/12/10 00:27:34;;;;;;;23.13;14.75;;;9.40;99.90;;;;;;5052502;28;20041;-59
2021/12/10 00:30:10;;;;;;;24.60;15.18;;;9.40;99.90;;;;;;5052888;28;20506;-59
2021/12/10 00:32:40;;;;;;;24.13;14.73;;;9.50;99.90;;;;;;5052803;28;20445;-59
2021/12/10 00:35:10;;;;;;;23.70;15.18;;;9.40;99.90;;;;;;5052916;28;20096;-59
2021/12/10 00:37:36;;;;;;;21.35;14.80;;;9.50;99.90;;;;;;5053678;28;20037;-59
2021/12/10 00:40:03;;;;;;;24.70;14.63;;;9.30;99.90;;;;;;5057298;28;20041;-59
2021/12/10 00:42:31;;;;;;;23.58;14.57;;;9.50;99.90;;;;;;5055064;28;20059;-59
2021/12/10 00:44:58;;;;;;;23.77;14.15;;;9.40;99.90;;;;;;5056828;28;20056;-58
2021/12/10 00:47:24;;;;;;;21.30;14.65;;;;;;;;;;5056990;28;20060;-58
2021/12/10 00:49:51;;;;;;;24.10;14.75;;;9.40;99.90;;;;;;5054174;28;20041;-64
2021/12/10 00:52:17;;;;;;;25.98;14.85;;;;;;;;;;5055760;28;20044;-64
2021/12/10 00:54:43;;;;;;;22.02;14.38;;;9.40;99.90;;;;;;5056205;28;20041;-64
2021/12/10 00:57:09;;;;;;;22.75;14.65;;;9.40;99.90;;;;;;5056284;28;20041;-64
2021/12/10 00:59:35;;;;;;;22.50;15.15;;;8.90;99.90;;;;;;5056673;28;20394;-64
2021/12/10 01:02:01;;;;;;;24.52;14.73;;;9.50;99.90;;;;;;5056240;28;20051;-65
2021/12/10 01:04:30;;;;;;;25.77;14.95;;;9.40;99.90;;;;;;5055351;28;20048;-64
2021/12/10 01:06:57;;;;;;;23.35;15.07;;;9.40;99.90;;;;;;5056059;28;20107;-64
2021/12/10 01:09:26;;;;;;;23.10;13.30;;;;;;;;;;5056884;28;20393;-65
2021/12/10 01:12:17;;;;;;;26.00;14.00;;;9.70;99.90;;;;;;5055726;28;20045;-63
2021/12/10 01:25:36;;;;;;;23.95;14.88;;;9.50;99.90;;;;;;5055696;28;20041;-64
2021/12/10 01:28:03;;;;;;;24.30;14.63;;;9.20;99.90;;;;;;5055180;28;20052;-64
2021/12/10 01:30:32;;;;;;;25.08;14.27;;;9.70;99.90;;;;;;5055674;28;20095;-64
2021/12/10 01:33:01;;;;;;;22.02;14.13;;;9.20;99.90;;;;;;5056500;28;20107;-64
2021/12/10 01:35:30;;;;;;;21.45;14.80;;;9.40;99.90;;;;;;5053884;28;20037;-64
2021/12/10 01:37:56;;;;;;;24.13;14.25;;;9.40;99.90;;;;;;5056500;28;20044;-65
2021/12/10 01:40:24;;;;;;;21.33;13.63;;;9.40;99.90;;;;;;5055886;28;20084;-58
2021/12/10 01:42:53;;;;;;;20.58;13.57;;;9.50;99.90;;;;;;5054333;28;20680;-58
2021/12/10 01:45:22;;;;;;;22.70;14.77;;;9.50;99.90;;;;;;5055484;28;20045;-58
2021/12/10 01:48:09;;;;;;;24.25;14.45;;;9.50;99.90;;;;;;5026879;28;20092;-59
2021/12/10 01:50:35;;;;;;;20.88;13.43;;;9.70;99.90;;;;;;5050956;28;20076;-58
2021/12/10 01:53:04;;;;;;;23.65;14.50;;;9.40;99.90;;;;;;5044248;28;20102;-58
2021/12/10 01:55:30;;;;;;;23.00;13.75;;;9.30;99.90;;;;;;5071071;28;20036;-64
2021/12/10 01:57:56;;;;;;;21.05;14.05;;;;;;;;;;5055305;28;20368;-64
2021/12/10 02:00:25;;;;;;;22.67;13.68;;;9.60;99.90;;;;;;5054513;28;20060;-59
2021/12/10 02:02:51;;;;;;;20.90;13.43;;;9.50;99.90;;;;;;5055155;28;20049;-58
2021/12/10 02:05:17;;;;;;;21.73;13.00;;;9.30;99.90;;;;;;5055190;28;20045;-58
2021/12/10 02:07:43;;;;;;;24.95;15.00;;;9.40;99.90;;;;;;5054388;28;20398;-59
2021/12/10 02:10:09;;;;;;;22.92;14.40;;;9.50;99.90;;;;;;5055249;28;20371;-58
2021/12/10 02:12:35;;;;;;;21.17;14.32;;;9.40;99.90;;;;;;5054238;28;20048;-59
2021/12/10 02:15:03;;;;;;;23.52;14.00;;;9.50;99.90;;;;;;5053718;28;20049;-58
2021/12/10 02:17:32;;;;;;;20.90;13.65;;;9.50;99.90;;;;;;5055159;28;20056;-58
2021/12/10 02:20:05;;;;;;;23.58;13.55;;;9.50;99.90;;;;;;5055340;28;20041;-58
2021/12/10 02:22:31;;;;;;;25.48;14.65;;;9.50;99.90;;;;;;5055234;28;20124;-58
2021/12/10 02:24:57;;;;;;;21.65;13.55;;;9.50;99.90;;;;;;5071077;28;20145;-59
2021/12/10 02:27:22;;;;;;;21.00;14.32;;;9.50;99.90;;;;;;5054955;28;20037;-58
2021/12/10 02:29:48;;;;;;;26.02;14.10;;;9.50;99.90;;;;;;5054576;28;20044;-58
2021/12/10 02:32:14;;;;;;;23.42;13.90;;;9.50;99.90;;;;;;5054900;28;20123;-58
2021/12/10 02:34:41;;;;;;;23.15;13.95;;;9.70;99.90;;;;;;5054496;28;20483;-58
2021/12/10 02:37:06;;;;;;;21.25;13.32;;;9.40;99.90;;;;;;5054713;28;20056;-58
2021/12/10 02:39:32;;;;;;;22.33;13.85;;;9.40;99.90;;;;;;5054364;28;20033;-59
2021/12/10 02:41:58;;;;;;;22.63;14.35;;;9.30;99.90;;;;;;5042561;28;20502;-58
2021/12/10 02:44:26;;;;;;;22.67;13.13;;;9.40;99.90;;;;;;5035135;28;20128;-64
2021/12/10 02:46:52;;;;;;;20.08;13.15;;;;;;;;;;5053974;28;20355;-64
2021/12/10 02:49:18;;;;;;;19.02;13.43;;;;;;;;;;5054335;28;20047;-64
2021/12/10 02:51:44;;;;;;;20.50;13.23;;;;;;;;;;5054619;28;20047;-64
2021/12/10 02:54:11;;;;;;;19.63;13.30;;;9.40;99.90;;;;;;5054415;28;20073;-64
2021/12/10 02:56:39;;;;;;;22.15;13.30;;;9.60;99.90;;;;;;5054741;28;20468;-58
2021/12/10 02:59:05;;;;;;;20.92;13.40;;;;;;;;;;5053933;28;20059;-59
2021/12/10 03:01:43;;;;;;;19.90;12.27;;;9.50;99.90;;;;;;5053040;28;20037;-58
2021/12/10 03:04:09;;;;;;;18.27;12.05;;;9.80;99.90;;;;;;5054030;28;20052;-58
2021/12/10 03:06:43;;;;;;;23.55;12.05;;;9.30;99.90;;;;;;5053198;28;20402;-58
2021/12/10 03:09:09;;;;;;;25.58;13.57;;;9.60;99.90;;;;;;5054115;28;20049;-59
2021/12/10 03:11:35;;;;;;;20.40;12.48;;;9.60;99.90;;;;;;5053812;28;20041;-58
2021/12/10 03:14:06;;;;;;;18.45;12.55;;;9.50;99.90;;;;;;5036285;28;20049;-58
2021/12/10 03:16:32;;;;;;;20.75;12.02;;;9.80;99.90;;;;;;5054559;28;20041;-59
2021/12/10 03:18:59;;;;;;;18.75;12.35;;;;;;;;;;5054194;28;20391;-61
2021/12/10 03:21:24;;;;;;;18.33;11.25;;;9.20;99.90;;;;;;5053598;28;20041;-58
2021/12/10 03:23:51;;;;;;;16.73;11.73;;;;;;;;;;5054026;28;20051;-59
2021/12/10 03:26:19;;;;;;;17.80;11.57;;;9.60;99.90;;;;;;5053669;28;20108;-63
2021/12/10 03:28:46;;;;;;;20.52;11.48;;;9.50;99.90;;;;;;5053923;28;20052;-63
2021/12/10 03:31:12;;;;;;;20.80;12.45;;;;;;;;;;5053687;28;20540;-63
2021/12/10 03:33:41;;;;;;;20.92;12.10;;;;;;;;;;5052835;28;20044;-63
2021/12/10 03:36:08;;;;;;;17.63;11.13;;;9.40;99.90;;;;;;5053263;28;20511;-58
2021/12/10 03:38:34;;;;;;;18.02;11.63;;;;;;;;;;5053652;28;20048;-58
2021/12/10 03:41:00;;;;;;;17.88;10.48;;;9.10;99.90;;;;;;5054002;28;20044;-59
2021/12/10 03:43:26;;;;;;;19.08;11.32;;;9.50;99.90;;;;;;5052693;28;20574;-59
2021/12/10 03:45:53;;;;;;;20.13;12.07;;;9.30;99.90;;;;;;5053951;28;20124;-58
2021/12/10 03:48:24;;;;;;;18.80;12.00;;;9.60;99.90;;;;;;5051643;28;20049;-60
2021/12/10 03:50:50;;;;;;;17.60;11.10;;;9.20;99.90;;;;;;5054020;28;20132;-64
2021/12/10 03:53:16;;;;;;;19.02;10.90;;;;;;;;;;5052624;28;20136;-64
2021/12/10 03:55:42;;;;;;;19.10;11.18;;;;;;;;;;5052791;28;20052;-64
2021/12/10 03:58:08;;;;;;;17.70;11.35;;;9.50;99.90;;;;;;5052933;28;20127;-63
2021/12/10 04:00:37;;;;;;;17.30;11.32;;;9.40;99.90;;;;;;5053366;28;20037;-58
2021/12/10 04:03:03;;;;;;;19.63;11.48;;;9.40;99.90;;;;;;5052447;28;20056;-58
2021/12/10 04:05:28;;;;;;;18.63;12.50;;;9.50;99.90;;;;;;5053069;28;20041;-58
2021/12/10 04:07:55;;;;;;;20.63;11.35;;;;;;;;;;5052920;28;20102;-58
2021/12/10 04:10:22;;;;;;;20.60;11.60;;;9.60;99.90;;;;;;5053391;28;20043;-59
2021/12/10 04:12:47;;;;;;;19.02;11.15;;;9.40;99.90;;;;;;5052799;28;20406;-59
2021/12/10 04:15:14;;;;;;;20.95;12.43;;;9.40;99.90;;;;;;5068207;28;20033;-58
2021/12/10 04:17:40;;;;;;;18.63;11.45;;;;;;;;;;5053094;28;20060;-59
2021/12/10 04:20:07;;;;;;;17.40;11.25;;;;;;;;;;5052538;28;20045;-58
2021/12/10 04:22:33;;;;;;;16.27;11.02;;;9.40;99.90;;;;;;5053416;28;20045;-59
2021/12/10 04:25:05;;;;;;;19.63;11.77;;;9.30;99.90;;;;;;5051634;28;20043;-58
2021/12/10 04:27:31;;;;;;;18.60;12.18;;;9.60;99.90;;;;;;5052304;28;20123;-58
2021/12/10 04:29:58;;;;;;;19.13;12.00;;;;;;;;;;5053037;28;20063;-59
2021/12/10 04:32:25;;;;;;;20.77;12.13;;;9.60;99.90;;;;;;5052601;28;20048;-59
2021/12/10 04:34:51;;;;;;;21.85;11.27;;;9.70;99.90;;;;;;5053008;28;20108;-58
2021/12/10 04:37:17;;;;;;;19.23;12.48;;;;;;;;;;5052073;28;20530;-60
2021/12/10 04:39:46;;;;;;;20.88;11.68;;;9.60;99.90;;;;;;5052971;28;20045;-59
2021/12/10 04:42:16;;;;;;;17.20;11.45;;;9.30;99.90;;;;;;5052672;28;20107;-58
2021/12/10 04:44:42;;;;;;;19.73;12.10;;;9.70;99.90;;;;;;5052616;28;20057;-58
2021/12/10 04:47:09;;;;;;;20.23;12.43;;;9.50;99.90;;;;;;5052640;28;20044;-58
2021/12/10 04:49:35;;;;;;;20.92;12.25;;;9.40;99.90;;;;;;5052708;28;20041;-59
2021/12/10 04:52:01;;;;;;;19.25;11.32;;;9.60;99.90;;;;;;5052677;28;20056;-58
2021/12/10 04:54:27;;;;;;;19.40;12.55;;;;;;;;;;5052962;28;20399;-59
2021/12/10 04:56:54;;;;;;;18.65;11.63;;;;;;;;;;5052907;28;20123;-58
2021/12/10 04:59:21;;;;;;;18.13;12.65;;;9.50;99.90;;;;;;5052154;28;20501;-59
2021/12/10 05:01:47;;;;;;;20.25;11.20;;;;;;;;;;5052622;28;20069;-60
2021/12/10 05:04:13;;;;;;;25.25;13.65;;;;;;;;;;5052800;28;20048;-59
2021/12/10 05:06:39;;;;;;;17.15;11.90;;;9.30;99.90;;;;;;5052752;28;20119;-58
2021/12/10 05:09:09;;;;;;;18.70;11.88;;;9.40;99.90;;;;;;5052498;28;20529;-58
2021/12/10 05:11:34;;;;;;;17.40;12.30;;;8.90;99.90;;;;;;5052500;28;20052;-58
2021/12/10 05:14:01;;;;;;;22.40;13.48;;;9.40;99.90;;;;;;5052814;28;20045;-59
2021/12/10 05:16:27;;;;;;;20.98;12.48;;;9.50;99.90;;;;;;5052724;28;20049;-58
2021/12/10 05:18:59;;;;;;;18.50;11.93;;;9.10;99.90;;;;;;5052301;28;20041;-58
2021/12/10 05:21:29;;;;;;;20.33;12.25;;;9.30;99.90;;;;;;5052368;28;20036;-64
2021/12/10 05:23:55;;;;;;;21.15;12.85;;;;;;;;;;5053028;28;20084;-58
2021/12/10 05:26:21;;;;;;;19.63;12.73;;;9.60;99.90;;;;;;5054458;28;20495;-58
2021/12/10 05:28:47;;;;;;;18.23;11.80;;;9.50;99.90;;;;;;5056318;28;20053;-58
2021/12/10 05:31:13;;;;;;;21.27;12.35;;;;;;;;;;5055953;28;20490;-58
2021/12/10 05:33:39;;;;;;;19.02;12.40;;;9.50;99.90;;;;;;5055876;28;20118;-59
2021/12/10 05:36:05;;;;;;;16.80;11.95;;;9.40;99.90;;;;;;5056176;28;20035;-58
2021/12/10 05:38:31;;;;;;;21.80;12.45;;;9.30;99.90;;;;;;5055365;28;20126;-58
2021/12/10 05:40:57;;;;;;;18.75;12.40;;;9.40;99.90;;;;;;5053043;28;20041;-59
2021/12/10 05:43:23;;;;;;;18.60;12.73;;;9.60;99.90;;;;;;5055350;28;20060;-58
2021/12/10 05:45:49;;;;;;;17.05;11.07;;;9.40;99.90;;;;;;5071475;28;20048;-58
2021/12/10 05:48:15;;;;;;;19.27;12.20;;;;;;;;;;5055758;28;20116;-59
2021/12/10 05:50:41;;;;;;;18.30;12.32;;;9.30;99.90;;;;;;5055760;28;20041;-59
2021/12/10 05:53:06;;;;;;;19.58;12.93;;;9.30;99.90;;;;;;5055636;28;20525;-58
2021/12/10 05:55:32;;;;;;;20.45;12.98;;;9.20;99.90;;;;;;5054368;28;20041;-59
2021/12/10 05:57:58;;;;;;;19.80;12.25;;;9.20;99.90;;;;;;5055798;28;20045;-58
2021/12/10 06:00:27;;;;;;;19.23;12.93;;;9.30;99.90;;;;;;5055324;28;20119;-59
2021/12/10 06:02:53;;;;;;;18.15;12.55;;;9.20;99.90;;;;;;5054664;28;20502;-58
2021/12/10 06:05:19;;;;;;;19.27;12.93;;;9.20;99.90;;;;;;5055431;28;20071;-59
2021/12/10 06:07:45;;;;;;;19.95;12.80;;;;;;;;;;5055381;28;20049;-58
2021/12/10 06:10:11;;;;;;;17.65;11.82;;;8.80;99.90;;;;;;5055519;28;20040;-58
2021/12/10 06:12:37;;;;;;;23.55;13.38;;;9.40;99.90;;;;;;5053954;28;20220;-59
2021/12/10 06:15:06;;;;;;;18.05;13.15;;;9.20;99.90;;;;;;5055467;28;20037;-58
2021/12/10 06:17:32;;;;;;;24.38;12.75;;;;;;;;;;5055398;28;20045;-59
2021/12/10 06:19:59;;;;;;;18.58;12.60;;;9.00;99.90;;;;;;5055385;28;20045;-59
2021/12/10 06:22:25;;;;;;;19.33;12.27;;;9.30;99.90;;;;;;5055159;28;20116;-59
2021/12/10 06:24:51;;;;;;;18.42;11.85;;;9.20;99.90;;;;;;5054404;28;20060;-63
2021/12/10 06:27:17;;;;;;;19.20;12.43;;;;;;;;;;5055177;28;20036;-63
2021/12/10 06:29:44;;;;;;;20.67;12.50;;;;;;;;;;5055535;28;20431;-63
2021/12/10 06:32:10;;;;;;;18.92;12.30;;;9.30;99.90;;;;;;5053203;28;20102;-63
2021/12/10 06:34:36;;;;;;;17.48;10.93;;;9.20;99.90;;;;;;5054427;28;20040;-58
2021/12/10 06:37:02;;;;;;;16.65;11.48;;;9.50;99.90;;;;;;5053894;28;20056;-59
2021/12/10 06:39:27;;;;;;;17.75;11.80;;;9.30;99.90;;;;;;5054645;28;20157;-58
2021/12/10 06:41:53;;;;;;;21.17;11.95;;;9.10;99.90;;;;;;5054462;28;20204;-58
2021/12/10 06:44:20;;;;;;;17.38;11.60;;;9.00;99.90;;;;;;5054505;28;20064;-58
2021/12/10 06:46:46;;;;;;;16.35;11.50;;;9.20;99.90;;;;;;5054373;28;20037;-58
2021/12/10 06:49:12;;;;;;;15.73;10.80;;;9.20;99.90;;;;;;5054469;28;20060;-59
2021/12/10 06:51:38;;;;;;;17.15;11.48;;;9.30;99.90;;;;;;5054755;28;20041;-58
2021/12/10 06:54:04;;;;;;;17.17;11.75;;;9.30;99.90;;;;;;5054758;28;20471;-64
2021/12/10 06:56:31;;;;;;;16.48;11.02;;;9.20;99.90;;;;;;5053538;28;20498;-64
2021/12/10 06:58:57;;;;;;;16.27;10.82;;;9.00;99.90;;;;;;5054322;28;20053;-65
2021/12/10 07:01:28;;;;;;;16.77;10.70;;;9.30;99.90;;;;;;5054569;28;20053;-59
2021/12/10 07:03:55;;;;;;;16.20;10.77;;;9.30;99.90;;;;;;5054354;28;20185;-58
2021/12/10 07:06:21;;;;;;;17.75;10.48;;;;;;;;;;5053253;28;20048;-58
2021/12/10 07:08:48;;;;;;;15.40;10.55;;;;;;;;;;5054102;28;20044;-58
2021/12/10 07:11:15;;;;;;;14.35;10.75;;;9.40;99.90;;;;;;5050365;28;20049;-60
2021/12/10 07:13:43;;;;;;;14.30;10.18;;;9.30;99.90;;;;;;5053406;28;20090;-59
2021/12/10 07:16:08;;;;;;;16.42;9.90;;;9.30;99.90;;;;;;5053380;28;20033;-58
2021/12/10 07:18:34;;;;;;;15.48;10.32;;;;;;;;;;5052989;28;20411;-59
2021/12/10 07:21:01;;;;;;;15.40;10.20;;;;;;;;;;5053387;28;20067;-59
2021/12/10 07:23:27;;;;;;;14.15;9.38;;;;;;;;;;5053581;28;20080;-60
2021/12/10 07:25:53;;;;;;;13.82;9.48;;;9.20;99.90;;;;;;5054084;28;20037;-57
2021/12/10 07:28:19;;;;;;;18.50;9.75;;;;;;;;;;5052221;28;20544;-58
2021/12/10 07:30:47;;;;;;;16.73;9.30;;;9.40;99.90;;;;;;5053655;28;20041;-60
2021/12/10 07:33:13;;;;;;;14.27;8.57;;;9.10;99.90;;;;;;5052865;28;20498;-65
2021/12/10 07:35:39;;;;;;;13.13;8.88;;;;;;;;;;5053468;28;20037;-65
2021/12/10 07:38:05;;;;;;;14.05;8.55;;;9.10;99.90;;;;;;5053561;28;20045;-59
2021/12/10 07:40:35;;;;;;;12.85;8.60;;;;;;;;;;5052755;28;20048;-62
2021/12/10 07:43:01;;;;;;;13.38;8.30;;;9.30;99.90;;;;;;5053236;28;20060;-58
2021/12/10 07:45:26;;;;;;;14.32;8.43;;;9.50;99.90;;;;;;5053827;28;20045;-58
2021/12/10 07:47:56;;;;;;;12.73;7.82;;;9.10;99.40;;;;;;5053164;28;20421;-64
2021/12/10 07:50:28;;;;;;;11.38;7.90;;;9.00;99.90;;;;;;5053008;28;20044;-64
2021/12/10 07:52:55;;;;;;;13.13;8.05;;;9.10;99.90;;;;;;5052982;28;20051;-64
2021/12/10 07:55:22;;;;;;;12.88;7.97;;;;;;;;;;5053246;28;20084;-67
2021/12/10 07:57:50;;;;;;;12.48;7.63;;;9.20;99.90;;;;;;5053194;28;20072;-64
2021/12/10 08:00:16;;;;;;;11.70;7.72;;;9.20;99.90;;;;;;5053208;28;20098;-64
2021/12/10 08:02:42;;;;;;;15.05;7.78;;;9.10;99.90;;;;;;5053367;28;20037;-59
2021/12/10 08:05:08;;;;;;;11.52;7.53;;;9.10;99.60;;;;;;5053321;28;20478;-60
2021/12/10 08:07:34;;;;;;;12.32;7.47;;;;;;;;;;5048771;28;20067;-58
2021/12/10 08:10:00;;;;;;;12.23;7.40;;;;;;;;;;5036434;28;20037;-64
2021/12/10 08:12:26;;;;;;;11.85;7.70;;;9.20;99.90;;;;;;5053501;28;20136;-63
2021/12/10 08:14:53;;;;;;;11.80;7.28;;;9.20;99.90;;;;;;5052948;28;20123;-64
2021/12/10 08:17:23;;;;;;;11.02;6.90;;;;;;;;;;5051761;28;20525;-64
2021/12/10 08:19:50;;;;;;;12.02;7.95;;;9.20;99.90;;;;;;5052966;28;20041;-64
2021/12/10 08:22:15;;;;;;;12.65;7.43;;;9.30;99.90;;;;;;5052424;28;20080;-59
2021/12/10 08:24:41;;;;;;;10.65;6.97;;;8.80;99.90;;;;;;5053215;28;20072;-59
2021/12/10 08:27:08;;;;;;;11.90;7.20;;;9.20;99.90;;;;;;5052846;28;20045;-59
2021/12/10 08:29:34;;;;;;;12.23;7.80;;;;;;;;;;5052302;28;20045;-59
2021/12/10 08:32:02;;;;;;;9.68;6.28;;;;;;;;;;5052778;28;20065;-64
2021/12/10 08:34:28;;;;;;;11.13;7.47;;;9.20;99.90;;;;;;5051661;28;20041;-64
2021/12/10 08:36:53;;;;;;;11.68;7.18;;;9.30;99.90;;;;;;5053443;28;20052;-58
2021/12/10 08:39:19;;;;;;;12.75;6.82;;;9.20;99.90;;;;;;5053154;28;20045;-59
2021/12/10 08:41:45;;;;;;;10.13;6.85;;;;;;;;;;5052240;28;20521;-59
2021/12/10 08:44:11;;;;;;;10.40;6.72;;;9.30;99.90;;;;;;5053272;28;20057;-59
2021/12/10 08:46:37;;;;;;;10.13;6.38;;;9.20;99.80;;;;;;5053339;28;20106;-59
2021/12/10 08:49:04;;;;;;;12.23;6.85;;;9.30;99.90;;;;;;5052155;28;20048;-59
2021/12/10 08:51:36;;;;;;;9.15;6.20;;;9.00;99.90;;;;;;5051927;28;20041;-59
2021/12/10 08:54:03;;;;;;;10.50;7.03;;;;;;;;;;5052114;28;20042;-59
2021/12/10 08:56:30;;;;;;;11.35;6.68;;;9.30;99.60;;;;;;5052703;28;20045;-59
2021/12/10 08:58:57;;;;;;;11.65;7.15;;;9.50;99.90;;;;;;5053031;28;20486;-59
2021/12/10 09:01:25;;;;;;;11.40;6.78;;;9.10;99.90;;;;;;5057191;28;20048;-64
2021/12/10 09:03:52;;;;;;;12.73;6.70;;;9.30;99.90;;;;;;5056134;28;20075;-64
2021/12/10 09:06:20;;;;;;;10.18;6.60;;;9.30;99.90;;;;;;5056695;28;20041;-64
2021/12/10 09:08:45;;;;;;;12.18;6.03;;;9.30;99.90;;;;;;5057005;28;20099;-64
2021/12/10 09:11:11;;;;;;;10.80;6.50;;;9.40;99.90;;;;;;5056256;28;20421;-64
2021/12/10 09:13:37;;;;;;;11.13;6.45;;;9.20;99.90;;;;;;5057202;28;20076;-64
2021/12/10 09:16:06;;;;;;;10.55;6.68;;;9.40;99.90;;;;;;5055700;28;20072;-64
2021/12/10 09:18:32;;;;;;;10.50;6.13;;;9.30;99.90;;;;;;5054910;28;20048;-64
2021/12/10 09:21:01;;;;;;;10.77;6.32;;;9.40;99.90;;;;;;5056020;28;20080;-64
2021/12/10 09:23:27;;;;;;;11.98;7.03;;;;;;;;;;5057248;28;20064;-64
2021/12/10 09:25:54;;;;;;;10.50;6.53;;;;;;;;;;5056779;28;20040;-64
2021/12/10 09:28:22;;;;;;;9.98;5.80;;;9.10;99.50;;;;;;5056678;28;20037;-64
2021/12/10 09:30:50;;;;;;;9.85;5.97;;;9.40;99.90;;;;;;5055840;28;20064;-64
2021/12/10 09:33:16;;;;;;;11.05;6.13;;;9.20;99.90;;;;;;5055698;28;20134;-64
2021/12/10 09:35:42;;;;;;;9.18;6.15;;;8.90;99.90;;;;;;5055953;28;20487;-64
2021/12/10 09:38:08;;;;;;;9.00;5.88;;;9.30;99.90;;;;;;5055693;28;20037;-63
2021/12/10 09:40:36;;;;;;;10.98;6.05;;;9.20;99.50;;;;;;5056497;28;20041;-64
2021/12/10 09:43:03;;;;;;;9.18;5.53;;;9.30;99.20;;;;;;5055514;28;20506;-64
2021/12/10 09:45:32;;;;;;;9.02;5.45;;;9.50;99.90;;;;;;5056357;28;20037;-64
2021/12/10 09:47:58;;;;;;;9.57;6.38;;;9.40;99.90;;;;;;5056305;28;20049;-64
2021/12/10 09:50:26;;;;;;;11.30;6.18;;;9.40;98.90;;;;;;5055917;28;20055;-64
2021/12/10 09:52:54;;;;;;;10.82;6.22;;;;;;;;;;5043135;28;20080;-59
2021/12/10 09:55:20;;;;;;;12.10;6.63;;;9.50;99.90;;;;;;5035927;28;20081;-59
2021/12/10 09:57:46;;;;;;;10.52;6.25;;;9.40;99.10;;;;;;5052712;28;20137;-60
2021/12/10 10:00:32;;;;;;;9.80;6.13;;;9.50;98.90;;;;;;5044627;28;20103;-58
2021/12/10 10:02:59;;;;;;;10.05;6.38;;;;;;;;;;5052600;28;20052;-58
2021/12/10 10:05:30;;;;;;;10.80;6.07;;;9.40;99.30;;;;;;5055445;28;20033;-57
2021/12/10 10:07:57;;;;;;;9.52;5.82;;;9.40;99.90;;;;;;5054752;28;20045;-59
2021/12/10 10:10:24;;;;;;;22.60;7.97;;;9.50;99.90;;;;;;5055017;28;20044;-59
2021/12/10 10:12:50;;;;;;;12.27;5.90;;;9.70;99.90;;;;;;5055437;28;20562;-58
2021/12/10 10:15:23;;;;;;;12.18;6.13;;;9.60;99.90;;;;;;5053905;28;20664;-59
2021/12/10 10:17:49;;;;;;;11.85;6.28;;;9.50;99.90;;;;;;5049043;28;20055;-59
2021/12/10 10:20:15;;;;;;;9.70;6.00;;;9.60;99.90;;;;;;5055160;28;20402;-59
2021/12/10 10:22:44;;;;;;;11.10;6.05;;;9.90;99.90;;;;;;5055259;28;20047;-64
2021/12/10 10:25:11;;;;;;;13.13;6.05;;;9.80;99.90;;;;;;5055327;28;20545;-64
2021/12/10 10:27:38;;;;;;;12.95;5.90;;;9.80;99.90;;;;;;5055550;28;20437;-64
2021/12/10 10:30:25;;;;;;;9.25;5.85;;;9.70;99.90;;;;;;5055225;28;20499;-63
2021/12/10 10:32:52;;;;;;;9.88;6.03;;;9.80;99.80;;;;;;5055016;28;20044;-64
2021/12/10 10:35:21;;;;;;;11.00;6.07;;;9.80;99.90;;;;;;5054754;28;20045;-64
2021/12/10 10:37:47;;;;;;;10.23;6.07;;;;;;;;;;5055058;28;20498;-64
2021/12/10 10:40:18;;;;;;;12.88;6.00;;;9.90;99.90;;;;;;5055331;28;20091;-64
2021/12/10 10:42:43;;;;;;;11.20;5.65;;;9.50;99.90;;;;;;5054376;28;20061;-63
2021/12/10 10:45:17;;;;;;;13.32;6.10;;;9.90;99.90;;;;;;5054929;28;20048;-58
2021/12/10 10:47:44;;;;;;;10.05;6.43;;;;;;;;;;5055242;28;20067;-58
2021/12/10 10:50:13;;;;;;;10.07;5.47;;;10.10;99.90;;;;;;5055143;28;20045;-59
2021/12/10 10:52:44;;;;;;;9.68;6.35;;;10.30;99.90;;;;;;5055090;28;20060;-58
2021/12/10 10:55:10;;;;;;;10.00;6.00;;;9.90;99.90;;;;;;5055056;28;20049;-59
2021/12/10 10:57:37;;;;;;;10.50;5.47;;;10.10;99.90;;;;;;5054507;28;20143;-59
2021/12/10 11:00:16;;;;;;;9.20;5.90;;;10.10;99.90;;;;;;5054904;28;20033;-58
2021/12/10 11:02:51;;;;;;;11.25;5.90;;;10.20;99.90;;;;;;5052960;28;20053;-63
2021/12/10 11:05:19;;;;;;;13.68;6.22;;;10.20;99.90;;;;;;5053752;28;20048;-59
2021/12/10 11:07:47;;;;;;;13.88;6.10;;;10.10;99.90;;;;;;5054798;28;20402;-60
2021/12/10 11:10:13;;;;;;;10.55;6.05;;;10.20;99.90;;;;;;5054281;28;20041;-59
2021/12/10 11:12:41;;;;;;;11.23;5.90;;;10.50;99.90;;;;;;5054685;28;20060;-65
2021/12/10 11:15:09;;;;;;;11.90;5.75;;;10.40;99.90;;;;;;5054309;28;20123;-65
2021/12/10 11:17:50;;;;;;;13.02;6.43;;;10.30;99.50;;;;;;5054681;28;20041;-66
2021/12/10 11:20:33;;;;;;;12.02;6.00;;;10.40;99.90;;;;;;5054619;28;20049;-66
2021/12/10 11:23:03;;;;;;;10.55;5.90;;;10.50;99.90;;;;;;5053584;28;20068;-60
2021/12/10 11:25:44;;;;;;;10.10;5.75;;;10.50;99.50;;;;;;5053902;28;20069;-61
2021/12/10 11:28:13;;;;;;;8.93;5.47;;;10.50;99.30;;;;;;5048231;28;20041;-63
2021/12/10 11:30:49;;;;;;;10.80;5.50;;;10.50;99.90;;;;;;5045344;28;20048;-62
2021/12/10 11:33:17;;;;;;;11.38;5.65;;;10.70;99.90;;;;;;5053920;28;20048;-60
2021/12/10 11:35:54;;;;;;;9.02;5.65;;;10.40;99.90;;;;;;5053961;28;20487;-59
2021/12/10 11:38:28;;;;;;;13.80;5.80;;;10.70;99.30;;;;;;5054245;28;20045;-64
2021/12/10 11:41:18;;;;;;;10.95;5.70;;;10.80;99.30;;;;;;5053477;28;20036;-59
2021/12/10 11:46:43;;;;;;;10.32;5.38;;;10.90;99.90;;;;;;5054095;28;20130;-64
2021/12/10 11:49:09;;;;;;;10.52;5.55;;;;;;;;;;5054046;28;20056;-61
2021/12/10 11:51:43;;;;;;;8.80;5.70;;;10.70;99.90;;;;;;5053526;28;20056;-60
2021/12/10 11:54:37;;;;;;;9.55;5.57;;;11.00;98.50;;;;;;5053421;28;20049;-60
2021/12/10 11:57:17;;;;;;;9.30;5.00;;;;;;;;;;5032758;28;20049;-60
2021/12/10 11:59:52;;;;;;;9.77;5.22;;;10.90;99.90;;;;;;5033675;28;20056;-59
2021/12/10 12:02:48;;;;;;;8.90;5.38;;;11.20;98.40;;;;;;5044603;28;20041;-60
2021/12/10 12:05:16;;;;;;;12.98;5.20;;;11.20;99.90;;;;;;5053737;28;20056;-62
2021/12/10 12:07:46;;;;;;;10.10;4.78;;;11.00;99.00;;;;;;5053547;28;20037;-67
2021/12/10 12:10:19;;;;;;;9.55;5.10;;;11.10;99.90;;;;;;5053444;28;20513;-66
2021/12/10 12:12:53;;;;;;;13.95;5.55;;;11.30;99.90;;;;;;5052517;28;20049;-66
2021/12/10 12:15:19;;;;;;;25.20;5.93;;;11.00;99.90;;;;;;5053469;28;20432;-66
2021/12/10 12:17:50;;;;;;;24.98;6.03;;;11.20;99.90;;;;;;5052759;28;20179;-65
2021/12/10 12:20:34;;;;;;;19.05;5.13;;;11.00;99.90;;;;;;5053628;28;20109;-65
2021/12/10 12:26:08;;;;;;;30.88;5.88;;;11.10;99.90;;;;;;5052904;28;20091;-64
2021/12/10 12:28:34;;;;;;;36.58;6.20;;;;;;;;;;5046047;28;20048;-66
2021/12/10 12:31:12;;;;;;;30.92;6.07;;;11.20;98.50;;;;;;5053477;28;20437;-67
2021/12/10 12:34:14;;;;;;;28.30;5.90;;;11.00;99.00;;;;;;5051896;28;20057;-59
2021/12/10 12:36:51;;;;;;;32.50;6.35;;;10.90;98.50;;;;;;5053440;28;20482;-61
2021/12/10 12:39:32;;;;;;;35.22;6.07;;;11.00;99.10;;;;;;5037651;28;20111;-60
2021/12/10 12:41:58;;;;;;;31.20;6.38;;;;;;;;;;5040328;28;20053;-59
2021/12/10 12:44:34;;;;;;;27.83;5.55;;;10.90;99.90;;;;;;5057491;28;20470;-60
2021/12/10 12:47:06;;;;;;;28.25;6.30;;;11.10;98.40;;;;;;5057467;28;20049;-60
2021/12/10 12:49:47;;;;;;;33.75;7.25;;;11.10;98.40;;;;;;5057150;28;20072;-60
2021/12/10 12:52:56;;;;;;;30.85;5.68;;;10.90;99.90;;;;;;5056894;28;20363;-60
2021/12/10 12:55:45;;;;;;;28.48;6.18;;;10.80;99.90;;;;;;5014732;28;20046;-59
2021/12/10 12:58:11;;;;;;;27.92;5.70;;;10.90;99.90;;;;;;5014994;28;20052;-60
2021/12/10 13:01:18;;;;;;;34.50;6.40;;;10.90;98.30;;;;;;5015109;28;20487;-59
2021/12/10 13:04:08;;;;;;;22.27;5.95;;;10.80;99.90;;;;;;4956568;29;20086;-61
2021/12/10 13:06:57;;;;;;;25.80;5.68;;;10.80;99.90;;;;;;4956830;29;20055;-61
2021/12/10 13:09:37;;;;;;;23.63;5.10;;;;;;;;;;4955818;29;20047;-66
2021/12/10 13:14:56;;;;;;;40.67;6.35;;;11.00;98.90;;;;;;4956568;29;20066;-60
2021/12/10 13:17:26;;;;;;;80.82;9.32;;;11.00;99.90;;;;;;4955961;29;20047;-61
2021/12/10 13:19:54;;;;;;;26.80;5.93;;;10.80;99.90;;;;;;4956197;29;20059;-60
2021/12/10 13:22:22;;;;;;;35.35;5.68;;;10.90;99.90;;;;;;4940674;29;20208;-60
2021/12/10 13:24:50;;;;;;;129.32;21.95;;;10.70;99.80;;;;;;4956290;29;20043;-59